createdAt,value
2018-04-25T00:02:08.212Z,94.96
2018-04-25T00:04:35.825Z,96.02
2018-04-25T00:07:03.409Z,96.55
2018-04-25T00:09:31.016Z,95.90
2018-04-25T00:11:58.630Z,95.66
2018-04-25T00:14:26.215Z,96.93
2018-04-25T00:16:53.807Z,96.69
2018-04-25T00:19:21.471Z,97.11
2018-04-25T00:21:49.177Z,97.41
2018-04-25T00:24:16.793Z,96.48
2018-04-25T00:26:44.445Z,96.06
2018-04-25T00:29:12.035Z,96.20
2018-04-25T00:31:39.625Z,96.47
2018-04-25T00:34:07.233Z,96.60
2018-04-25T00:36:34.818Z,96.21
2018-04-25T00:39:02.443Z,96.65
2018-04-25T00:41:30.072Z,94.00
2018-04-25T00:43:57.665Z,89.68
2018-04-25T00:46:25.333Z,90.23
2018-04-25T00:48:53.007Z,86.88
2018-04-25T00:51:20.590Z,86.56
2018-04-25T00:53:48.180Z,91.76
2018-04-25T00:56:15.842Z,92.27
2018-04-25T00:58:43.650Z,91.84
2018-04-25T01:01:11.322Z,91.59
2018-04-25T01:03:38.908Z,93.44
2018-04-25T01:06:06.622Z,93.05
2018-04-25T01:08:34.290Z,88.58
2018-04-25T01:11:01.868Z,88.59
2018-04-25T01:13:29.651Z,86.19
2018-04-25T01:15:57.292Z,89.73
2018-04-25T01:18:24.894Z,89.12
2018-04-25T01:20:52.604Z,90.78
2018-04-25T01:23:24.969Z,91.16
2018-04-25T01:26:01.638Z,91.62
2018-04-25T01:31:41.012Z,92.35
2018-04-25T01:34:14.621Z,92.63
2018-04-25T01:36:43.286Z,92.91
2018-04-25T01:39:17.520Z,93.15
2018-04-25T01:41:47.217Z,93.95
2018-04-25T01:44:22.835Z,94.99
2018-04-25T01:50:11.172Z,95.64
2018-04-25T01:52:50.481Z,96.80
2018-04-25T01:55:29.819Z,96.18
2018-04-25T01:58:09.543Z,95.92
2018-04-25T02:00:48.992Z,96.82
2018-04-25T02:03:17.462Z,97.29
2018-04-25T02:05:45.130Z,97.13
2018-04-25T02:08:12.713Z,97.29
2018-04-25T02:10:40.473Z,97.17
2018-04-25T02:13:08.326Z,97.65
2018-04-25T02:15:35.912Z,97.55
2018-04-25T02:18:03.589Z,97.54
2018-04-25T02:20:31.179Z,97.86
2018-04-25T02:22:58.781Z,97.61
2018-04-25T02:25:26.395Z,98.87
2018-04-25T02:27:54.106Z,99.49
2018-04-25T02:30:21.698Z,99.46
2018-04-25T02:32:49.332Z,99.29
2018-04-25T02:35:16.917Z,99.36
2018-04-25T02:37:44.538Z,99.49
2018-04-25T02:40:12.151Z,98.58
2018-04-25T02:42:39.742Z,98.10
2018-04-25T02:45:07.329Z,98.43
2018-04-25T02:47:34.966Z,99.58
2018-04-25T02:50:02.546Z,99.24
2018-04-25T02:52:30.136Z,99.44
2018-04-25T02:54:57.759Z,98.87
2018-04-25T02:57:25.385Z,99.41
2018-04-25T02:59:53.309Z,99.53
2018-04-25T03:02:20.949Z,100.00
2018-04-25T03:04:48.589Z,100.00
2018-04-25T03:07:16.195Z,100.00
2018-04-25T03:09:43.790Z,100.00
2018-04-25T03:12:11.489Z,100.00
2018-04-25T03:14:39.149Z,100.00
2018-04-25T03:17:06.757Z,100.00
2018-04-25T03:19:34.376Z,100.00
2018-04-25T03:22:01.971Z,100.00
2018-04-25T03:24:29.564Z,100.00
2018-04-25T03:26:57.192Z,99.07
2018-04-25T03:29:24.771Z,97.93
2018-04-25T03:31:52.513Z,96.97
2018-04-25T03:34:20.340Z,96.34
2018-04-25T03:36:48.239Z,96.68
2018-04-25T03:39:15.816Z,96.97
2018-04-25T03:41:43.565Z,97.27
2018-04-25T03:44:11.216Z,97.70
2018-04-25T03:46:38.890Z,97.57
2018-04-25T03:49:06.524Z,97.75
2018-04-25T03:51:34.116Z,97.17
2018-04-25T03:54:01.690Z,91.88
2018-04-25T03:56:29.299Z,85.39
2018-04-25T03:58:56.855Z,81.40
2018-04-25T04:01:24.412Z,78.74
2018-04-25T04:03:52.009Z,75.34
2018-04-25T04:06:19.764Z,73.42
2018-04-25T04:08:47.416Z,70.76
2018-04-25T04:11:15.084Z,67.31
2018-04-25T04:13:42.759Z,64.69
2018-04-25T04:16:10.413Z,61.54
2018-04-25T04:18:38.032Z,60.11
2018-04-25T04:21:05.627Z,58.19
2018-04-25T04:23:33.199Z,54.90
2018-04-25T04:26:00.827Z,53.65
2018-04-25T04:28:28.408Z,51.64
2018-04-25T04:30:55.986Z,50.84
2018-04-25T04:33:23.600Z,49.53
2018-04-25T04:35:51.184Z,48.86
2018-04-25T04:38:18.756Z,47.30
2018-04-25T04:40:46.358Z,46.08
2018-04-25T04:43:13.942Z,46.79
2018-04-25T04:45:41.553Z,44.71
2018-04-25T04:48:09.150Z,44.74
2018-04-25T04:50:36.727Z,42.43
2018-04-25T04:53:04.313Z,42.05
2018-04-25T04:55:31.936Z,40.25
2018-04-25T04:57:59.520Z,38.64
2018-04-25T05:00:27.113Z,37.50
2018-04-25T05:02:54.764Z,38.54
2018-04-25T05:05:22.339Z,38.12
2018-04-25T05:07:49.928Z,37.57
2018-04-25T05:10:17.543Z,39.18
2018-04-25T05:12:45.170Z,39.07
2018-04-25T05:15:12.789Z,38.37
2018-04-25T05:17:40.433Z,38.75
2018-04-25T05:20:08.015Z,38.63
2018-04-25T05:22:35.592Z,38.76
2018-04-25T05:25:03.180Z,39.69
2018-04-25T05:27:30.747Z,40.31
2018-04-25T05:29:58.342Z,39.97
2018-04-25T05:32:25.951Z,38.07
2018-04-25T05:34:53.546Z,36.81
2018-04-25T05:37:21.131Z,36.42
2018-04-25T05:39:48.736Z,35.17
2018-04-25T05:42:16.308Z,36.16
2018-04-25T05:44:43.885Z,34.51
2018-04-25T05:47:11.505Z,34.74
2018-04-25T05:49:39.087Z,33.56
2018-04-25T05:52:06.667Z,33.95
2018-04-25T05:54:34.288Z,35.53
2018-04-25T05:57:01.858Z,34.65
2018-04-25T05:59:29.425Z,33.30
2018-04-25T06:01:57.037Z,34.15
2018-04-25T06:04:24.626Z,34.06
2018-04-25T06:06:52.190Z,35.27
2018-04-25T06:09:19.805Z,34.59
2018-04-25T06:11:47.408Z,32.29
2018-04-25T06:14:14.980Z,32.83
2018-04-25T06:16:42.592Z,31.64
2018-04-25T06:19:10.164Z,30.50
2018-04-25T06:21:37.751Z,31.67
2018-04-25T06:24:05.368Z,31.61
2018-04-25T06:26:33.026Z,32.73
2018-04-25T06:29:00.555Z,31.79
2018-04-25T06:31:28.179Z,32.33
2018-04-25T06:33:55.764Z,31.84
2018-04-25T06:36:23.386Z,32.09
2018-04-25T06:38:51.003Z,30.67
2018-04-25T06:41:18.591Z,30.26
2018-04-25T06:43:46.167Z,31.04
2018-04-25T06:46:13.813Z,28.76
2018-04-25T06:48:41.390Z,29.05
2018-04-25T06:51:08.967Z,30.79
2018-04-25T06:53:36.579Z,30.28
2018-04-25T06:56:04.204Z,29.54
2018-04-25T06:58:31.777Z,29.27
2018-04-25T07:00:59.383Z,31.09
2018-04-25T07:03:26.952Z,30.21
2018-04-25T07:05:54.541Z,30.34
2018-04-25T07:08:22.151Z,28.76
2018-04-25T07:10:49.747Z,29.46
2018-04-25T07:13:17.341Z,27.83
2018-04-25T07:15:44.956Z,27.07
2018-04-25T07:18:12.538Z,25.27
2018-04-25T07:20:40.119Z,28.54
2018-04-25T07:23:07.743Z,25.63
2018-04-25T07:25:35.323Z,25.38
2018-04-25T07:28:02.905Z,26.28
2018-04-25T07:30:30.546Z,31.52
2018-04-25T07:32:58.139Z,29.07
2018-04-25T07:35:25.797Z,26.38
2018-04-25T07:37:53.403Z,26.56
2018-04-25T07:40:20.994Z,28.61
2018-04-25T07:42:48.579Z,28.85
2018-04-25T07:45:16.207Z,29.51
2018-04-25T07:47:43.783Z,28.48
2018-04-25T07:50:11.366Z,26.78
2018-04-25T07:52:38.975Z,28.66
2018-04-25T07:55:06.557Z,27.75
2018-04-25T07:57:34.132Z,27.87
2018-04-25T08:00:01.754Z,30.32
2018-04-25T08:02:29.335Z,27.11
2018-04-25T08:04:56.929Z,28.11
2018-04-25T08:07:24.669Z,27.31
2018-04-25T08:09:52.227Z,27.42
2018-04-25T08:12:31.525Z,27.62
2018-04-25T08:15:10.823Z,26.87
2018-04-25T08:17:50.107Z,27.75
2018-04-25T08:20:29.359Z,27.80
2018-04-25T08:22:56.978Z,26.52
2018-04-25T08:25:24.573Z,29.37
2018-04-25T08:27:52.149Z,27.97
2018-04-25T08:30:19.971Z,29.04
2018-04-25T08:32:47.560Z,26.79
2018-04-25T08:35:15.147Z,30.17
2018-04-25T08:37:42.787Z,27.94
2018-04-25T08:40:10.408Z,27.63
2018-04-25T08:42:37.988Z,24.97
2018-04-25T08:45:05.660Z,26.10
2018-04-25T08:47:33.207Z,25.49
2018-04-25T08:50:00.781Z,25.68
2018-04-25T08:52:28.407Z,28.31
2018-04-25T08:54:56.015Z,27.53
2018-04-25T08:57:23.592Z,27.54
2018-04-25T08:59:51.222Z,27.03
2018-04-25T09:02:18.851Z,28.07
2018-04-25T09:04:46.433Z,28.50
2018-04-25T09:07:14.055Z,29.09
2018-04-25T09:09:41.634Z,29.37
2018-04-25T09:12:09.219Z,26.30
2018-04-25T09:14:36.850Z,25.53
2018-04-25T09:17:04.432Z,26.32
2018-04-25T09:19:32.005Z,26.47
2018-04-25T09:21:59.618Z,27.55
2018-04-25T09:24:27.245Z,26.65
2018-04-25T09:26:54.825Z,26.04
2018-04-25T09:29:22.449Z,26.16
2018-04-25T09:31:50.026Z,26.27
2018-04-25T09:34:17.610Z,25.34
2018-04-25T09:36:45.228Z,26.98
2018-04-25T09:39:12.805Z,26.79
2018-04-25T09:41:40.393Z,26.08
2018-04-25T09:44:08.007Z,26.71
2018-04-25T09:46:35.588Z,27.26
2018-04-25T09:49:03.172Z,26.02
2018-04-25T09:51:30.823Z,25.57
2018-04-25T09:53:58.408Z,26.30
2018-04-25T09:56:25.990Z,27.25
2018-04-25T09:58:53.602Z,28.13
2018-04-25T10:01:26.707Z,26.62
2018-04-25T10:03:54.365Z,24.70
2018-04-25T10:06:21.973Z,25.74
2018-04-25T10:08:49.543Z,25.11
2018-04-25T10:11:17.165Z,24.24
2018-04-25T10:13:44.752Z,27.96
2018-04-25T10:16:12.330Z,26.18
2018-04-25T10:18:40.008Z,24.17
2018-04-25T10:21:07.593Z,25.73
2018-04-25T10:23:35.201Z,27.26
2018-04-25T10:26:02.824Z,24.88
2018-04-25T10:28:30.468Z,26.71
2018-04-25T10:30:58.047Z,24.31
2018-04-25T10:33:25.670Z,25.33
2018-04-25T10:35:53.243Z,24.22
2018-04-25T10:38:20.828Z,24.10
2018-04-25T10:40:48.437Z,27.62
2018-04-25T10:43:16.024Z,24.87
2018-04-25T10:45:43.597Z,26.58
2018-04-25T10:48:11.206Z,26.39
2018-04-25T10:50:38.784Z,24.22
2018-04-25T10:53:06.359Z,24.90
2018-04-25T10:55:33.987Z,25.57
2018-04-25T10:58:01.558Z,25.31
2018-04-25T11:00:29.204Z,24.56
2018-04-25T11:02:56.843Z,25.52
2018-04-25T11:05:24.443Z,24.61
2018-04-25T11:07:52.059Z,25.24
2018-04-25T11:10:19.634Z,23.02
2018-04-25T11:12:47.236Z,22.93
2018-04-25T11:15:14.805Z,23.32
2018-04-25T11:17:42.368Z,23.87
2018-04-25T11:20:09.977Z,23.61
2018-04-25T11:22:37.606Z,22.51
2018-04-25T11:25:05.190Z,24.25
2018-04-25T11:27:32.900Z,23.79
2018-04-25T11:30:00.476Z,22.00
2018-04-25T11:32:28.219Z,23.47
2018-04-25T11:34:55.841Z,22.34
2018-04-25T11:37:23.453Z,20.83
2018-04-25T11:39:51.045Z,23.13
2018-04-25T11:42:18.662Z,22.04
2018-04-25T11:44:46.239Z,20.33
2018-04-25T11:47:13.892Z,20.83
2018-04-25T11:49:41.460Z,21.67
2018-04-25T11:52:09.030Z,20.96
2018-04-25T11:54:36.604Z,21.84
2018-04-25T11:57:04.235Z,21.26
2018-04-25T11:59:31.823Z,22.77
2018-04-25T12:01:59.410Z,22.34
2018-04-25T12:04:27.023Z,20.25
2018-04-25T12:06:54.666Z,21.42
2018-04-25T12:09:22.326Z,20.06
2018-04-25T12:11:49.942Z,19.51
2018-04-25T12:14:17.661Z,19.76
2018-04-25T12:16:45.310Z,19.42
2018-04-25T12:19:12.952Z,21.35
2018-04-25T12:21:40.623Z,21.30
2018-04-25T12:24:08.289Z,21.75
2018-04-25T12:26:35.963Z,20.16
2018-04-25T12:29:03.624Z,20.48
2018-04-25T12:31:31.276Z,20.46
2018-04-25T12:33:58.945Z,21.32
2018-04-25T12:36:26.604Z,20.18
2018-04-25T12:38:55.253Z,20.83
2018-04-25T12:41:22.930Z,22.32
2018-04-25T12:43:50.499Z,22.29
2018-04-25T12:46:18.081Z,21.95
2018-04-25T12:48:45.688Z,21.96
2018-04-25T12:51:13.258Z,23.47
2018-04-25T12:53:40.832Z,20.54
2018-04-25T12:56:08.422Z,21.54
2018-04-25T12:58:35.999Z,21.01
2018-04-25T13:01:03.624Z,23.12
2018-04-25T13:03:31.236Z,25.31
2018-04-25T13:05:58.799Z,25.69
2018-04-25T13:08:26.374Z,25.28
2018-04-25T13:10:54.076Z,27.23
2018-04-25T13:13:21.657Z,27.12
2018-04-25T13:15:49.217Z,28.42
2018-04-25T13:18:19.784Z,29.04
2018-04-25T13:20:47.390Z,28.57
2018-04-25T13:23:15.059Z,29.66
2018-04-25T13:25:42.659Z,28.83
2018-04-25T13:28:10.360Z,29.62
2018-04-25T13:30:37.920Z,30.93
2018-04-25T13:33:05.524Z,31.35
2018-04-25T13:35:33.154Z,30.63
2018-04-25T13:38:00.720Z,30.37
2018-04-25T13:40:28.320Z,30.95
2018-04-25T13:42:55.944Z,30.29
2018-04-25T13:47:56.574Z,30.24
2018-04-25T13:50:24.153Z,30.97
2018-04-25T13:52:51.709Z,30.76
2018-04-25T13:55:19.318Z,29.97
2018-04-25T13:57:47.042Z,28.81
2018-04-25T14:00:14.679Z,29.50
2018-04-25T14:02:42.337Z,30.33
2018-04-25T14:05:09.950Z,30.95
2018-04-25T14:07:37.549Z,31.28
2018-04-25T14:10:05.332Z,31.39
2018-04-25T14:12:32.897Z,32.14
2018-04-25T14:15:00.452Z,31.66
2018-04-25T14:17:28.059Z,33.05
2018-04-25T14:19:55.613Z,31.68
2018-04-25T14:22:23.169Z,32.39
2018-04-25T14:24:50.758Z,33.09
2018-04-25T14:27:18.350Z,33.35
2018-04-25T14:29:45.930Z,34.43
2018-04-25T14:32:13.507Z,33.34
2018-04-25T14:34:41.090Z,32.65
2018-04-25T14:37:08.659Z,32.56
2018-04-25T14:39:36.258Z,32.60
2018-04-25T14:42:04.059Z,32.43
2018-04-25T14:44:31.625Z,31.63
2018-04-25T14:46:59.277Z,32.97
2018-04-25T14:49:27.013Z,34.13
2018-04-25T14:51:54.999Z,33.47
2018-04-25T14:54:22.639Z,33.17
2018-04-25T14:56:50.591Z,31.67
2018-04-25T14:59:18.180Z,32.31
2018-04-25T15:01:46.147Z,32.67
2018-04-25T15:04:14.042Z,32.13
2018-04-25T15:06:41.618Z,33.07
2018-04-25T15:09:09.347Z,33.86
2018-04-25T15:11:37.009Z,33.67
2018-04-25T15:14:04.583Z,32.63
2018-04-25T15:16:32.339Z,33.14
2018-04-25T15:18:59.923Z,33.15
2018-04-25T15:21:27.495Z,34.08
2018-04-25T15:23:55.142Z,34.65
2018-04-25T15:26:23.498Z,34.61
2018-04-25T15:28:51.262Z,35.64
2018-04-25T15:31:18.877Z,35.68
2018-04-25T15:33:46.454Z,34.93
2018-04-25T15:36:14.142Z,34.65
2018-04-25T15:38:41.756Z,35.28
2018-04-25T15:41:09.332Z,35.92
2018-04-25T15:43:37.218Z,36.61
2018-04-25T15:46:04.823Z,37.48
2018-04-25T15:48:32.460Z,37.14
2018-04-25T15:51:00.115Z,37.62
2018-04-25T15:53:28.017Z,38.09
2018-04-25T15:55:55.581Z,38.15
2018-04-25T15:58:23.164Z,39.41
2018-04-25T16:00:50.781Z,40.33
2018-04-25T16:03:18.364Z,40.34
2018-04-25T16:05:45.943Z,40.15
2018-04-25T16:08:13.637Z,42.76
2018-04-25T16:10:41.231Z,42.51
2018-04-25T16:13:08.886Z,43.10
2018-04-25T16:15:36.753Z,45.02
2018-04-25T16:18:04.397Z,45.93
2018-04-25T16:20:31.983Z,46.79
2018-04-25T16:22:59.698Z,47.84
2018-04-25T16:25:27.279Z,49.18
2018-04-25T16:27:54.931Z,48.46
2018-04-25T16:30:22.538Z,49.31
2018-04-25T16:32:50.108Z,50.20
2018-04-25T16:35:17.699Z,50.78
2018-04-25T16:37:45.336Z,50.35
2018-04-25T16:40:12.969Z,52.02
2018-04-25T16:42:40.803Z,52.23
2018-04-25T16:45:08.420Z,53.71
2018-04-25T16:47:36.010Z,54.66
2018-04-25T16:50:03.597Z,55.67
2018-04-25T16:52:31.204Z,55.48
2018-04-25T16:54:58.972Z,56.93
2018-04-25T16:57:26.572Z,58.90
2018-04-25T16:59:54.245Z,59.78
2018-04-25T17:02:21.909Z,57.59
2018-04-25T17:04:49.803Z,60.45
2018-04-25T17:07:17.419Z,62.29
2018-04-25T17:09:45.145Z,63.75
2018-04-25T17:12:12.724Z,61.21
2018-04-25T17:14:40.340Z,64.47
2018-04-25T17:17:07.970Z,63.47
2018-04-25T17:19:35.666Z,63.39
2018-04-25T17:22:03.441Z,63.59
2018-04-25T17:24:31.010Z,63.72
2018-04-25T17:26:58.604Z,65.92
2018-04-25T17:29:26.219Z,67.96
2018-04-25T17:31:53.791Z,69.52
2018-04-25T17:34:21.521Z,69.54
2018-04-25T17:36:49.258Z,70.89
2018-04-25T17:39:16.898Z,71.16
2018-04-25T17:41:44.644Z,71.77
2018-04-25T17:44:12.288Z,71.39
2018-04-25T17:46:39.928Z,72.73
2018-04-25T17:49:07.573Z,71.51
2018-04-25T17:51:35.188Z,73.64
2018-04-25T17:54:02.763Z,73.95
2018-04-25T17:56:30.333Z,74.71
2018-04-25T17:58:57.937Z,75.07
2018-04-25T18:01:25.514Z,75.81
2018-04-25T18:03:53.161Z,76.73
2018-04-25T18:06:20.763Z,76.97
2018-04-25T18:08:48.499Z,75.62
2018-04-25T18:11:16.168Z,77.16
2018-04-25T18:13:43.769Z,78.70
2018-04-25T18:16:11.349Z,78.66
2018-04-25T18:18:39.149Z,77.26
2018-04-25T18:21:06.758Z,78.63
2018-04-25T18:23:34.453Z,80.00
2018-04-25T18:26:02.035Z,79.04
2018-04-25T18:28:29.631Z,79.98
2018-04-25T18:30:57.256Z,81.08
2018-04-25T18:33:24.900Z,79.03
2018-04-25T18:35:52.542Z,81.63
2018-04-25T18:38:20.121Z,83.06
2018-04-25T18:40:47.903Z,84.08
2018-04-25T18:43:15.626Z,83.24
2018-04-25T18:45:43.198Z,83.56
2018-04-25T18:48:10.773Z,83.20
2018-04-25T18:50:38.539Z,84.51
2018-04-25T18:53:06.119Z,83.96
2018-04-25T18:55:33.703Z,83.90
2018-04-25T18:58:01.340Z,84.24
2018-04-25T19:00:28.996Z,84.64
2018-04-25T19:02:56.569Z,85.45
2018-04-25T19:05:24.335Z,86.02
2018-04-25T19:07:52.165Z,85.46
2018-04-25T19:10:19.749Z,86.23
2018-04-25T19:12:47.426Z,85.79
2018-04-25T19:15:15.005Z,84.95
2018-04-25T19:17:42.616Z,85.17
2018-04-25T19:20:10.299Z,85.61
2018-04-25T19:22:37.878Z,81.08
2018-04-25T19:25:05.481Z,85.89
2018-04-25T19:27:33.083Z,85.98
2018-04-25T19:30:00.738Z,86.57
2018-04-25T19:32:28.373Z,85.74
2018-04-25T19:34:56.002Z,84.17
2018-04-25T19:37:23.621Z,85.46
2018-04-25T19:39:51.387Z,85.78
2018-04-25T19:42:19.009Z,86.77
2018-04-25T19:44:46.678Z,87.92
2018-04-25T19:47:14.208Z,88.27
2018-04-25T19:49:41.820Z,88.13
2018-04-25T19:52:09.390Z,88.57
2018-04-25T19:54:37.042Z,87.93
2018-04-25T19:57:04.785Z,86.40
2018-04-25T19:59:32.372Z,87.17
2018-04-25T20:01:59.961Z,87.81
2018-04-25T20:04:27.688Z,87.15
2018-04-25T20:06:55.430Z,87.42
2018-04-25T20:09:23.033Z,88.79
2018-04-25T20:11:50.946Z,88.37
2018-04-25T20:14:18.646Z,89.08
2018-04-25T20:16:46.301Z,90.28
2018-04-25T20:19:13.981Z,90.48
2018-04-25T20:21:41.564Z,89.79
2018-04-25T20:24:09.170Z,89.88
2018-04-25T20:26:36.768Z,89.91
2018-04-25T20:29:04.430Z,89.95
2018-04-25T20:31:32.004Z,90.29
2018-04-25T20:33:59.752Z,90.74
2018-04-25T20:36:27.322Z,91.75
2018-04-25T20:38:54.951Z,91.23
2018-04-25T20:41:22.576Z,91.43
2018-04-25T20:43:50.148Z,92.14
2018-04-25T20:46:17.948Z,92.89
2018-04-25T20:48:45.716Z,91.64
2018-04-25T20:51:13.293Z,91.78
2018-04-25T20:53:41.022Z,91.18
2018-04-25T20:56:08.692Z,91.65
2018-04-25T20:58:36.360Z,91.24
2018-04-25T21:01:04.019Z,91.85
2018-04-25T21:03:31.698Z,92.67
2018-04-25T21:05:59.278Z,93.80
2018-04-25T21:08:26.862Z,93.51
2018-04-25T21:10:54.890Z,93.03
2018-04-25T21:13:22.519Z,93.52
2018-04-25T21:15:50.101Z,92.66
2018-04-25T21:18:17.705Z,92.75
2018-04-25T21:20:45.310Z,92.52
2018-04-25T21:23:12.996Z,92.43
2018-04-25T21:25:40.654Z,92.44
2018-04-25T21:28:08.299Z,91.29
2018-04-25T21:30:35.862Z,90.74
2018-04-25T21:33:03.472Z,90.21
2018-04-25T21:35:31.066Z,89.87
2018-04-25T21:37:58.754Z,89.90
2018-04-25T21:40:26.380Z,89.95
2018-04-25T21:42:54.078Z,90.32
2018-04-25T21:45:21.647Z,91.45
2018-04-25T21:47:49.267Z,92.13
2018-04-25T21:50:16.836Z,92.90
2018-04-25T21:52:44.510Z,92.96
2018-04-25T21:55:12.219Z,92.19
2018-04-25T21:57:39.799Z,92.34
2018-04-25T22:00:07.499Z,92.34
2018-04-25T22:02:35.094Z,92.37
2018-04-25T22:05:02.693Z,93.00
2018-04-25T22:07:30.504Z,92.84
2018-04-25T22:09:58.159Z,93.07
2018-04-25T22:12:25.744Z,93.49
2018-04-25T22:14:53.481Z,93.53
2018-04-25T22:17:21.204Z,93.62
2018-04-25T22:19:48.803Z,93.98
2018-04-25T22:22:16.394Z,93.95
2018-04-25T22:24:44.038Z,92.96
2018-04-25T22:27:11.801Z,92.98
2018-04-25T22:29:39.384Z,93.34
2018-04-25T22:32:06.983Z,92.33
2018-04-25T22:34:34.570Z,91.66
2018-04-25T22:37:02.148Z,91.58
2018-04-25T22:39:29.771Z,91.46
2018-04-25T22:41:57.346Z,92.50
2018-04-25T22:44:25.020Z,91.79
2018-04-25T22:46:52.665Z,92.20
2018-04-25T22:49:20.245Z,92.87
2018-04-25T22:51:47.813Z,93.06
2018-04-25T22:54:15.427Z,92.80
2018-04-25T22:56:43.008Z,92.45
2018-04-25T22:59:10.593Z,91.86
2018-04-25T23:01:38.255Z,92.58
2018-04-25T23:04:05.899Z,92.83
2018-04-25T23:06:33.499Z,92.99
2018-04-25T23:09:01.098Z,93.38
2018-04-25T23:11:28.688Z,94.04
2018-04-25T23:13:56.347Z,94.42
2018-04-25T23:16:23.986Z,94.66
2018-04-25T23:18:51.571Z,95.09
2018-04-25T23:21:19.349Z,95.39
2018-04-25T23:23:46.963Z,95.96
2018-04-25T23:26:14.533Z,96.85
2018-04-25T23:28:42.115Z,95.75
2018-04-25T23:31:09.791Z,95.70
2018-04-25T23:33:37.396Z,95.79
2018-04-25T23:36:04.975Z,95.85
2018-04-25T23:38:32.614Z,95.64
2018-04-25T23:41:00.200Z,95.71
2018-04-25T23:43:28.074Z,96.25
2018-04-25T23:45:55.753Z,97.15
2018-04-25T23:48:23.346Z,97.10
2018-04-25T23:50:50.927Z,97.43
2018-04-25T23:53:18.747Z,97.36
2018-04-25T23:55:46.324Z,97.42
2018-04-25T23:58:14.056Z,97.66
